Time;durP1;ratioP1;P1;durP2;ratioP2;P2;SDS_P1;SDS_P2;PMS_P1;PMS_P2;Temp;Humidity;BMP_temperature;BMP_pressure;BME280_temperature;BME280_humidity;BME280_pressure;Samples;Min_cycle;Max_cycle;Signal;HPM_P1;HPM_P2
2022/03/02 00:01:00;;;;;;;;;;;5.40;99.90;;;;;;5116865;27;19958;-82
2022/03/02 00:03:26;;;;;;;;;;;5.40;99.90;;;;;;5111656;27;20014;-82
2022/03/02 00:05:52;;;;;;;;;;;5.40;99.90;;;;;;5142576;27;19911;-83
2022/03/02 00:08:17;;;;;;;;;;;5.40;99.90;;;;;;5138252;27;19915;-83
2022/03/02 00:10:43;;;;;;;;;;;5.40;99.90;;;;;;5132178;27;19947;-82
2022/03/02 00:13:08;;;;;;;;;;;5.30;99.90;;;;;;5114831;27;19907;-82
2022/03/02 00:15:34;;;;;;;;;;;5.40;99.90;;;;;;5120089;27;20378;-82
2022/03/02 00:18:01;;;;;;;;;;;5.30;99.90;;;;;;5138296;27;19907;-83
2022/03/02 00:20:26;;;;;;;;;;;5.30;99.90;;;;;;5134126;27;19942;-82
2022/03/02 00:22:52;;;;;;;;;;;5.20;99.90;;;;;;5136367;27;20274;-83
2022/03/02 00:25:19;;;;;;;;;;;5.10;99.90;;;;;;5120169;27;19916;-82
2022/03/02 00:27:44;;;;;;;;;;;5.00;99.90;;;;;;5137584;27;19921;-82
2022/03/02 00:30:10;;;;;;;;;;;5.00;99.90;;;;;;5134096;27;19907;-82
2022/03/02 00:32:36;;;;;;;;;;;4.90;99.90;;;;;;5113231;28;19975;-82
2022/03/02 00:35:02;;;;;;;;;;;4.80;99.90;;;;;;5113820;27;19969;-82
2022/03/02 00:37:27;;;;;;;;;;;4.70;99.90;;;;;;5138437;27;19912;-82
2022/03/02 00:39:53;;;;;;;;;;;4.60;99.90;;;;;;5137715;27;19907;-82
2022/03/02 00:42:18;;;;;;;;;;;4.60;99.90;;;;;;5124201;27;19911;-83
2022/03/02 00:44:44;;;;;;;;;;;4.50;99.90;;;;;;5122631;28;19903;-82
2022/03/02 00:47:09;;;;;;;;;;;4.50;99.90;;;;;;5114145;27;20359;-82
2022/03/02 00:49:35;;;;;;;;;;;4.50;99.90;;;;;;5113595;27;19918;-82
2022/03/02 00:52:02;;;;;;;;;;;4.50;99.90;;;;;;5134519;27;19968;-82
2022/03/02 00:54:28;;;;;;;;;;;4.40;99.90;;;;;;5118843;27;19908;-83
2022/03/02 00:56:53;;;;;;;;;;;4.40;99.90;;;;;;5135566;27;19911;-82
2022/03/02 00:59:19;;;;;;;;;;;4.40;99.90;;;;;;5111610;27;19965;-82
2022/03/02 01:01:44;;;;;;;;;;;4.30;99.90;;;;;;5136104;27;19908;-83
2022/03/02 01:04:10;;;;;;;;;;;4.30;99.90;;;;;;5111428;27;19968;-82
2022/03/02 01:06:35;;;;;;;;;;;4.20;99.90;;;;;;5123643;27;20267;-82
2022/03/02 01:09:01;;;;;;;;;;;4.20;99.90;;;;;;5122248;27;19903;-82
2022/03/02 01:11:26;;;;;;;;;;;4.20;99.90;;;;;;5135968;27;19908;-82
2022/03/02 01:13:52;;;;;;;;;;;4.10;99.90;;;;;;5118077;27;20006;-82
2022/03/02 01:16:17;;;;;;;;;;;4.10;99.90;;;;;;5135383;27;22144;-83
2022/03/02 01:18:43;;;;;;;;;;;4.10;99.90;;;;;;5146721;27;20000;-82
2022/03/02 01:21:09;;;;;;;;;;;4.10;99.90;;;;;;5117031;27;19931;-82
2022/03/02 01:23:34;;;;;;;;;;;4.00;99.90;;;;;;5135746;27;20274;-83
2022/03/02 01:26:00;;;;;;;;;;;3.90;99.90;;;;;;5122332;27;20364;-82
2022/03/02 01:28:25;;;;;;;;;;;3.90;99.90;;;;;;5138383;27;19953;-83
2022/03/02 01:30:51;;;;;;;;;;;3.80;99.90;;;;;;5132699;27;19930;-82
2022/03/02 01:33:16;;;;;;;;;;;3.80;99.90;;;;;;5107456;27;19913;-82
2022/03/02 01:35:42;;;;;;;;;;;3.70;99.90;;;;;;5124800;27;19915;-82
2022/03/02 01:38:08;;;;;;;;;;;3.60;99.90;;;;;;5126114;27;19969;-83
2022/03/02 01:40:33;;;;;;;;;;;3.60;99.90;;;;;;5133096;27;19907;-82
2022/03/02 01:42:59;;;;;;;;;;;3.50;99.90;;;;;;5119770;27;19911;-82
2022/03/02 01:45:24;;;;;;;;;;;3.50;99.90;;;;;;5123028;27;19908;-82
2022/03/02 01:47:50;;;;;;;;;;;3.40;99.90;;;;;;5124836;27;20388;-83
2022/03/02 01:50:16;;;;;;;;;;;3.40;99.90;;;;;;5112046;27;19919;-82
2022/03/02 01:52:42;;;;;;;;;;;3.40;99.90;;;;;;5140062;27;19911;-82
2022/03/02 01:55:08;;;;;;;;;;;3.30;99.90;;;;;;5135887;27;19908;-82
2022/03/02 01:57:34;;;;;;;;;;;3.30;99.90;;;;;;5118892;27;19993;-82
2022/03/02 01:59:59;;;;;;;;;;;3.20;99.90;;;;;;5135521;27;20066;-83
2022/03/02 02:02:25;;;;;;;;;;;3.20;99.90;;;;;;5137490;27;19981;-82
2022/03/02 02:04:51;;;;;;;;;;;3.10;99.90;;;;;;5120113;27;19908;-82
2022/03/02 02:07:17;;;;;;;;;;;3.10;99.90;;;;;;5112757;27;20408;-83
2022/03/02 02:09:42;;;;;;;;;;;3.10;99.90;;;;;;5121819;27;19908;-82
2022/03/02 02:12:07;;;;;;;;;;;3.10;99.90;;;;;;5123108;27;20255;-82
2022/03/02 02:14:33;;;;;;;;;;;3.10;99.90;;;;;;5141155;27;19908;-82
2022/03/02 02:16:58;;;;;;;;;;;3.10;99.90;;;;;;5118989;27;19908;-82
2022/03/02 02:19:24;;;;;;;;;;;3.10;99.90;;;;;;5120681;27;19915;-82
2022/03/02 02:21:49;;;;;;;;;;;3.10;99.90;;;;;;5140857;27;20362;-82
2022/03/02 02:24:16;;;;;;;;;;;3.10;99.90;;;;;;5113936;27;19912;-82
2022/03/02 02:26:42;;;;;;;;;;;3.10;99.90;;;;;;5118763;27;20369;-82
2022/03/02 02:29:07;;;;;;;;;;;3.20;99.90;;;;;;5130012;27;19930;-84
2022/03/02 02:31:33;;;;;;;;;;;3.20;99.90;;;;;;5122860;27;19908;-82
2022/03/02 02:33:58;;;;;;;;;;;3.20;99.90;;;;;;5114363;27;19964;-83
2022/03/02 02:36:24;;;;;;;;;;;3.10;99.90;;;;;;5111727;27;19908;-83
2022/03/02 02:38:50;;;;;;;;;;;3.10;99.90;;;;;;5112149;28;19908;-82
2022/03/02 02:41:16;;;;;;;;;;;3.00;99.90;;;;;;5110825;27;19993;-82
2022/03/02 02:43:42;;;;;;;;;;;3.00;99.90;;;;;;5119422;27;20167;-82
2022/03/02 02:46:08;;;;;;;;;;;3.00;99.90;;;;;;5141194;27;20343;-83
2022/03/02 02:48:34;;;;;;;;;;;3.00;99.90;;;;;;5136299;27;19919;-82
2022/03/02 02:50:59;;;;;;;;;;;3.00;99.90;;;;;;5135478;27;20275;-83
2022/03/02 02:53:25;;;;;;;;;;;2.90;99.90;;;;;;5120805;27;19908;-82
2022/03/02 02:55:52;;;;;;;;;;;2.90;99.90;;;;;;5132802;27;19994;-83
2022/03/02 02:58:17;;;;;;;;;;;2.90;99.90;;;;;;5118015;27;19908;-83
2022/03/02 03:00:45;;;;;;;;;;;3.00;99.90;;;;;;5137014;27;19915;-82
2022/03/02 03:03:11;;;;;;;;;;;2.90;99.90;;;;;;5138631;27;19911;-83
2022/03/02 03:05:36;;;;;;;;;;;2.90;99.90;;;;;;5112563;27;19919;-82
2022/03/02 03:08:03;;;;;;;;;;;2.90;99.90;;;;;;5120548;27;19954;-82
2022/03/02 03:10:30;;;;;;;;;;;2.90;99.90;;;;;;5118391;27;19907;-83
2022/03/02 03:12:55;;;;;;;;;;;3.00;99.90;;;;;;5108605;27;20135;-82
2022/03/02 03:15:21;;;;;;;;;;;2.90;99.90;;;;;;5117643;27;19915;-83
2022/03/02 03:17:48;;;;;;;;;;;3.00;99.90;;;;;;5121082;27;19903;-83
2022/03/02 03:20:14;;;;;;;;;;;3.00;99.90;;;;;;5117297;27;19919;-82
2022/03/02 03:22:39;;;;;;;;;;;3.00;99.90;;;;;;5120800;27;19911;-83
2022/03/02 03:25:07;;;;;;;;;;;2.90;99.90;;;;;;5131133;27;19912;-82
2022/03/02 03:27:32;;;;;;;;;;;2.90;99.90;;;;;;5134544;27;19915;-83
2022/03/02 03:29:58;;;;;;;;;;;2.90;99.90;;;;;;5115050;27;19912;-83
2022/03/02 03:32:23;;;;;;;;;;;3.00;99.90;;;;;;5114869;27;20011;-82
2022/03/02 03:34:49;;;;;;;;;;;3.00;99.90;;;;;;5123267;27;19946;-83
2022/03/02 03:37:14;;;;;;;;;;;3.00;99.90;;;;;;5115355;27;19908;-83
2022/03/02 03:39:42;;;;;;;;;;;3.00;99.90;;;;;;5111831;27;20386;-82
2022/03/02 03:42:08;;;;;;;;;;;3.00;99.90;;;;;;5134905;27;19912;-83
2022/03/02 03:44:34;;;;;;;;;;;3.00;99.90;;;;;;5135260;27;20261;-82
2022/03/02 03:46:59;;;;;;;;;;;3.00;99.90;;;;;;5117823;27;19916;-82
2022/03/02 03:49:24;;;;;;;;;;;3.10;99.90;;;;;;5120844;27;19986;-82
2022/03/02 03:51:50;;;;;;;;;;;3.10;99.90;;;;;;5117682;27;19957;-82
2022/03/02 03:54:15;;;;;;;;;;;3.10;99.90;;;;;;5113320;27;20381;-82
2022/03/02 03:56:41;;;;;;;;;;;3.10;99.90;;;;;;5141240;27;20366;-82
2022/03/02 03:59:07;;;;;;;;;;;3.10;99.90;;;;;;5116111;27;19954;-82
2022/03/02 04:01:33;;;;;;;;;;;3.10;99.90;;;;;;5119580;27;19940;-82
2022/03/02 04:03:59;;;;;;;;;;;3.10;99.90;;;;;;5136435;27;20003;-82
2022/03/02 04:06:24;;;;;;;;;;;3.10;99.90;;;;;;5138645;27;19907;-82
2022/03/02 04:08:50;;;;;;;;;;;3.10;99.90;;;;;;5121480;27;19907;-82
2022/03/02 04:11:15;;;;;;;;;;;3.10;99.90;;;;;;5144774;27;19939;-82
2022/03/02 04:13:41;;;;;;;;;;;3.10;99.90;;;;;;5131526;27;19975;-83
2022/03/02 04:16:06;;;;;;;;;;;3.20;99.90;;;;;;5137414;27;19960;-83
2022/03/02 04:18:32;;;;;;;;;;;3.20;99.90;;;;;;5125228;27;19911;-82
2022/03/02 04:20:58;;;;;;;;;;;3.30;99.90;;;;;;5119156;27;20001;-82
2022/03/02 04:23:23;;;;;;;;;;;3.30;99.90;;;;;;5136066;27;19994;-83
2022/03/02 04:25:49;;;;;;;;;;;3.20;99.90;;;;;;5141390;27;20019;-82
2022/03/02 04:28:15;;;;;;;;;;;3.20;99.90;;;;;;5136998;27;19909;-82
2022/03/02 04:30:40;;;;;;;;;;;3.20;99.90;;;;;;5130327;27;19930;-82
2022/03/02 04:33:06;;;;;;;;;;;3.20;99.90;;;;;;5139176;27;21300;-82
2022/03/02 04:35:32;;;;;;;;;;;3.20;99.90;;;;;;5122436;27;19934;-82
2022/03/02 04:37:58;;;;;;;;;;;3.20;99.90;;;;;;5118393;27;19908;-81
2022/03/02 04:40:23;;;;;;;;;;;3.20;99.90;;;;;;5124589;27;19907;-82
2022/03/02 04:42:49;;;;;;;;;;;3.20;99.90;;;;;;5120563;27;19923;-82
2022/03/02 04:45:15;;;;;;;;;;;3.20;99.90;;;;;;5128581;27;19908;-82
2022/03/02 04:47:41;;;;;;;;;;;3.30;99.90;;;;;;5128476;27;19964;-82
2022/03/02 04:50:07;;;;;;;;;;;3.30;99.90;;;;;;5121695;27;20153;-82
2022/03/02 04:52:33;;;;;;;;;;;3.30;99.90;;;;;;5123043;27;19926;-82
2022/03/02 04:55:07;;;;;;;;;;;3.40;99.90;;;;;;5125960;27;19904;-82
2022/03/02 04:57:38;;;;;;;;;;;3.40;99.90;;;;;;5115404;27;19920;-82
2022/03/02 05:00:05;;;;;;;;;;;3.50;99.90;;;;;;5137703;27;20180;-82
2022/03/02 05:02:30;;;;;;;;;;;3.50;99.90;;;;;;5137797;27;20271;-82
2022/03/02 05:04:56;;;;;;;;;;;3.60;99.90;;;;;;5135217;27;19904;-82
2022/03/02 05:07:21;;;;;;;;;;;3.60;99.90;;;;;;5122952;27;19994;-83
2022/03/02 05:09:47;;;;;;;;;;;3.60;99.90;;;;;;5128322;27;20002;-82
2022/03/02 05:12:12;;;;;;;;;;;3.60;99.90;;;;;;5114931;27;19923;-82
2022/03/02 05:14:38;;;;;;;;;;;3.60;99.90;;;;;;5111982;27;19928;-82
2022/03/02 05:17:04;;;;;;;;;;;3.60;99.90;;;;;;5118875;27;19914;-82
2022/03/02 05:19:29;;;;;;;;;;;3.60;99.90;;;;;;5123248;27;19910;-82
2022/03/02 05:21:54;;;;;;;;;;;3.60;99.90;;;;;;5119995;27;19919;-82
2022/03/02 05:24:20;;;;;;;;;;;3.60;99.90;;;;;;5117682;27;20007;-83
2022/03/02 05:26:45;;;;;;;;;;;3.60;99.90;;;;;;5140993;27;20370;-82
2022/03/02 05:29:11;;;;;;;;;;;3.60;99.90;;;;;;5131167;27;19912;-82
2022/03/02 05:31:36;;;;;;;;;;;3.50;99.90;;;;;;5132421;27;20321;-81
2022/03/02 05:34:02;;;;;;;;;;;3.50;99.90;;;;;;5133116;27;19908;-82
2022/03/02 05:36:28;;;;;;;;;;;3.40;99.90;;;;;;5116941;27;19908;-83
2022/03/02 05:38:53;;;;;;;;;;;3.40;99.90;;;;;;5114515;27;19942;-82
2022/03/02 05:41:20;;;;;;;;;;;3.30;99.90;;;;;;5128218;27;19914;-82
2022/03/02 05:43:45;;;;;;;;;;;3.30;99.90;;;;;;5140810;27;19925;-82
2022/03/02 05:46:11;;;;;;;;;;;3.30;99.90;;;;;;5122257;27;19915;-82
2022/03/02 05:48:37;;;;;;;;;;;3.30;99.90;;;;;;5116127;27;19943;-82
2022/03/02 05:51:02;;;;;;;;;;;3.30;99.90;;;;;;5119945;27;19933;-82
2022/03/02 05:53:28;;;;;;;;;;;3.30;99.90;;;;;;5122825;27;19998;-83
2022/03/02 05:55:53;;;;;;;;;;;3.20;99.90;;;;;;5119398;27;19907;-83
2022/03/02 05:58:19;;;;;;;;;;;3.20;99.90;;;;;;5141862;27;19907;-81
2022/03/02 06:00:44;;;;;;;;;;;3.20;99.90;;;;;;5149005;27;19926;-82
2022/03/02 06:03:10;;;;;;;;;;;3.20;99.90;;;;;;5115303;27;19972;-82
2022/03/02 06:05:35;;;;;;;;;;;3.20;99.90;;;;;;5121247;27;20630;-82
2022/03/02 06:08:01;;;;;;;;;;;3.20;99.90;;;;;;5119523;27;19911;-82
2022/03/02 06:10:26;;;;;;;;;;;3.20;99.90;;;;;;5119756;27;19919;-82
2022/03/02 06:12:52;;;;;;;;;;;3.20;99.90;;;;;;5138924;27;19953;-82
2022/03/02 06:15:17;;;;;;;;;;;3.20;99.90;;;;;;5123980;27;20484;-81
2022/03/02 06:17:43;;;;;;;;;;;3.20;99.90;;;;;;5139217;27;19914;-82
2022/03/02 06:20:10;;;;;;;;;;;3.20;99.90;;;;;;5121626;27;19907;-82
2022/03/02 06:22:36;;;;;;;;;;;3.20;99.90;;;;;;5140895;27;20406;-82
2022/03/02 06:25:02;;;;;;;;;;;3.20;99.90;;;;;;5120079;27;19919;-82
2022/03/02 06:27:27;;;;;;;;;;;3.20;99.90;;;;;;5132863;27;19908;-82
2022/03/02 06:29:53;;;;;;;;;;;3.20;99.90;;;;;;5119185;27;20290;-82
2022/03/02 06:32:18;;;;;;;;;;;3.30;99.90;;;;;;5131012;27;19960;-82
2022/03/02 06:34:44;;;;;;;;;;;3.30;99.90;;;;;;5126378;27;19979;-82
2022/03/02 06:37:10;;;;;;;;;;;3.40;99.90;;;;;;5140716;27;19908;-81
2022/03/02 06:39:35;;;;;;;;;;;3.50;99.90;;;;;;5119880;27;19930;-82
2022/03/02 06:42:05;;;;;;;;;;;3.70;99.90;;;;;;5142001;27;19971;-81
2022/03/02 06:44:32;;;;;;;;;;;3.90;99.90;;;;;;5122427;27;20399;-83
2022/03/02 06:47:03;;;;;;;;;;;4.00;99.90;;;;;;5113145;27;19923;-81
2022/03/02 06:49:31;;;;;;;;;;;4.10;99.90;;;;;;5123624;27;19903;-81
2022/03/02 06:51:58;;;;;;;;;;;4.20;99.90;;;;;;5115253;27;19911;-82
2022/03/02 06:54:26;;;;;;;;;;;4.30;99.90;;;;;;5114015;28;20367;-81
2022/03/02 06:56:55;;;;;;;;;;;4.40;99.90;;;;;;5120038;27;19911;-81
2022/03/02 06:59:29;;;;;;;;;;;4.50;99.90;;;;;;5119697;27;19911;-82
2022/03/02 07:01:58;;;;;;;;;;;4.60;99.90;;;;;;5107492;28;19915;-82
2022/03/02 07:04:24;;;;;;;;;;;4.80;99.90;;;;;;5133608;27;19907;-82
2022/03/02 07:06:51;;;;;;;;;;;5.10;99.90;;;;;;5120878;27;19930;-81
2022/03/02 07:09:18;;;;;;;;;;;5.30;99.90;;;;;;5109481;28;19911;-81
2022/03/02 07:11:44;;;;;;;;;;;5.40;99.90;;;;;;5101503;28;19964;-81
2022/03/02 07:14:13;;;;;;;;;;;5.70;99.90;;;;;;5104593;28;19907;-81
2022/03/02 07:16:41;;;;;;;;;;;6.20;99.90;;;;;;5103897;27;19918;-81
2022/03/02 07:19:06;;;;;;;;;;;6.90;99.90;;;;;;5117124;27;20366;-81
2022/03/02 07:21:33;;;;;;;;;;;7.90;99.90;;;;;;5120226;27;19904;-82
2022/03/02 07:24:04;;;;;;;;;;;8.50;99.90;;;;;;5119414;27;19954;-81
2022/03/02 07:26:30;;;;;;;;;;;9.00;99.90;;;;;;5137483;27;20282;-82
2022/03/02 07:28:56;;;;;;;;;;;9.90;99.90;;;;;;5135374;27;19907;-82
2022/03/02 07:31:22;;;;;;;;;;;10.70;99.90;;;;;;5136252;27;19921;-81
2022/03/02 07:33:50;;;;;;;;;;;11.20;99.90;;;;;;5134474;27;20240;-82
2022/03/02 07:36:18;;;;;;;;;;;11.50;99.90;;;;;;5123243;27;19908;-82
2022/03/02 07:38:46;;;;;;;;;;;11.80;99.90;;;;;;5119275;27;19907;-83
2022/03/02 07:41:12;;;;;;;;;;;12.10;99.90;;;;;;5120378;27;20371;-81
2022/03/02 07:43:38;;;;;;;;;;;12.30;99.90;;;;;;5134125;27;19926;-82
2022/03/02 07:46:05;;;;;;;;;;;12.70;99.90;;;;;;5138353;27;19927;-82
2022/03/02 07:48:31;;;;;;;;;;;13.70;99.90;;;;;;5118509;27;20371;-83
2022/03/02 07:50:57;;;;;;;;;;;15.10;99.90;;;;;;5137115;27;19918;-81
2022/03/02 07:53:25;;;;;;;;;;;16.90;99.90;;;;;;5118645;27;19914;-81
2022/03/02 07:55:52;;;;;;;;;;;18.30;99.90;;;;;;5140049;27;20948;-81
2022/03/02 07:58:18;;;;;;;;;;;19.00;99.90;;;;;;5137651;27;19908;-81
2022/03/02 08:00:47;;;;;;;;;;;19.50;99.90;;;;;;5123122;27;19919;-81
2022/03/02 08:03:13;;;;;;;;;;;20.00;99.90;;;;;;5113099;27;19923;-81
2022/03/02 08:05:39;;;;;;;;;;;20.20;99.90;;;;;;5141483;27;19912;-81
2022/03/02 08:08:05;;;;;;;;;;;21.00;99.90;;;;;;5125982;27;19921;-81
2022/03/02 08:10:31;;;;;;;;;;;21.30;99.90;;;;;;5122263;27;20400;-79
2022/03/02 08:12:57;;;;;;;;;;;21.90;99.90;;;;;;5122723;27;20001;-81
2022/03/02 08:15:24;;;;;;;;;;;22.40;99.90;;;;;;5124830;27;19918;-80
2022/03/02 08:17:49;;;;;;;;;;;23.30;99.90;;;;;;5142681;27;20278;-81
2022/03/02 08:20:15;;;;;;;;;;;23.90;99.90;;;;;;5118462;27;19929;-81
2022/03/02 08:22:44;;;;;;;;;;;23.30;99.90;;;;;;5124539;28;19912;-81
2022/03/02 08:25:12;;;;;;;;;;;23.30;99.90;;;;;;5123360;27;20388;-82
2022/03/02 08:27:39;;;;;;;;;;;23.60;99.90;;;;;;5110497;27;19919;-82
2022/03/02 08:30:06;;;;;;;;;;;24.50;99.90;;;;;;5128751;27;19911;-82
2022/03/02 08:32:37;;;;;;;;;;;24.90;99.90;;;;;;5115402;28;19919;-82
2022/03/02 08:35:03;;;;;;;;;;;24.40;99.90;;;;;;5114790;27;20423;-82
2022/03/02 08:37:30;;;;;;;;;;;24.70;99.90;;;;;;5119455;28;19911;-82
2022/03/02 08:39:56;;;;;;;;;;;24.90;99.90;;;;;;5104814;28;19961;-82
2022/03/02 08:42:22;;;;;;;;;;;25.30;99.90;;;;;;5124966;27;19920;-82
2022/03/02 08:44:47;;;;;;;;;;;25.00;99.90;;;;;;5133551;27;19982;-81
2022/03/02 08:47:13;;;;;;;;;;;24.50;99.90;;;;;;5110257;28;19916;-81
2022/03/02 08:49:39;;;;;;;;;;;25.10;99.90;;;;;;5134448;27;19911;-81
2022/03/02 08:52:05;;;;;;;;;;;25.50;99.90;;;;;;5112774;28;19943;-82
2022/03/02 08:54:34;;;;;;;;;;;25.00;99.90;;;;;;5133124;27;19993;-82
2022/03/02 08:57:00;;;;;;;;;;;25.10;99.90;;;;;;5110972;28;19916;-82
2022/03/02 08:59:26;;;;;;;;;;;24.70;99.90;;;;;;5131872;27;19920;-81
2022/03/02 09:01:53;;;;;;;;;;;25.60;99.90;;;;;;5115307;28;19907;-82
2022/03/02 09:04:21;;;;;;;;;;;26.70;99.90;;;;;;5113295;28;19907;-81
2022/03/02 09:06:46;;;;;;;;;;;26.50;99.90;;;;;;5107656;28;19911;-82
2022/03/02 09:09:12;;;;;;;;;;;26.40;99.90;;;;;;5125081;28;19983;-82
2022/03/02 09:11:42;;;;;;;;;;;25.70;99.90;;;;;;5107828;28;19916;-82
2022/03/02 09:14:07;;;;;;;;;;;26.60;99.90;;;;;;5139007;28;19922;-82
2022/03/02 09:16:33;;;;;;;;;;;27.10;99.90;;;;;;5125232;28;19966;-82
2022/03/02 09:18:59;;;;;;;;;;;26.60;99.90;;;;;;5139369;28;20371;-82
2022/03/02 09:21:25;;;;;;;;;;;27.30;99.90;;;;;;5121288;28;19916;-82
2022/03/02 09:23:53;;;;;;;;;;;27.30;99.90;;;;;;5129501;28;20409;-82
2022/03/02 09:26:19;;;;;;;;;;;26.10;99.90;;;;;;5135150;27;19908;-81
2022/03/02 09:28:46;;;;;;;;;;;25.70;99.90;;;;;;5119651;28;19999;-81
2022/03/02 09:31:15;;;;;;;;;;;25.80;99.90;;;;;;5116153;27;19918;-82
2022/03/02 09:33:41;;;;;;;;;;;25.00;99.90;;;;;;5127597;27;19919;-81
2022/03/02 09:36:08;;;;;;;;;;;26.00;99.90;;;;;;5136437;27;19915;-81
2022/03/02 09:38:34;;;;;;;;;;;25.90;99.90;;;;;;5131925;27;19951;-81
2022/03/02 09:41:05;;;;;;;;;;;25.60;99.90;;;;;;5135572;27;20009;-82
2022/03/02 09:43:31;;;;;;;;;;;25.50;99.90;;;;;;5126681;27;19908;-81
2022/03/02 09:45:57;;;;;;;;;;;25.40;99.90;;;;;;5133307;27;19911;-81
2022/03/02 09:48:30;;;;;;;;;;;26.00;99.90;;;;;;5123978;27;19907;-82
2022/03/02 09:51:04;;;;;;;;;;;25.80;99.90;;;;;;5135449;27;19912;-81
2022/03/02 09:53:30;;;;;;;;;;;24.90;99.90;;;;;;5134868;27;19915;-82
2022/03/02 09:55:57;;;;;;;;;;;26.30;99.90;;;;;;5118486;27;20052;-82
2022/03/02 09:58:24;;;;;;;;;;;25.20;99.90;;;;;;5134635;27;19944;-82
2022/03/02 10:00:52;;;;;;;;;;;25.20;99.90;;;;;;5115766;27;19911;-82
2022/03/02 10:03:19;;;;;;;;;;;26.40;99.90;;;;;;5118510;27;19915;-81
2022/03/02 10:05:48;;;;;;;;;;;26.50;99.90;;;;;;5121716;27;19911;-81
2022/03/02 10:08:15;;;;;;;;;;;27.00;99.90;;;;;;5131444;27;19919;-82
2022/03/02 10:10:40;;;;;;;;;;;26.50;99.90;;;;;;5136205;27;20276;-81
2022/03/02 10:13:10;;;;;;;;;;;26.50;99.90;;;;;;5115934;27;19937;-82
2022/03/02 10:15:36;;;;;;;;;;;26.90;99.90;;;;;;5122284;27;19918;-82
2022/03/02 10:18:03;;;;;;;;;;;26.60;99.90;;;;;;5118682;27;19912;-82
2022/03/02 10:20:30;;;;;;;;;;;26.80;99.90;;;;;;5139044;27;20399;-82
2022/03/02 10:23:10;;;;;;;;;;;27.70;99.90;;;;;;5130261;27;19987;-82
2022/03/02 10:25:54;;;;;;;;;;;26.80;99.90;;;;;;5112855;27;19923;-81
2022/03/02 10:28:27;;;;;;;;;;;26.60;99.90;;;;;;5137629;27;19911;-81
2022/03/02 10:31:02;;;;;;;;;;;26.90;99.90;;;;;;5104294;28;20093;-81
2022/03/02 10:33:36;;;;;;;;;;;27.40;99.90;;;;;;5101619;27;19916;-81
2022/03/02 10:36:04;;;;;;;;;;;27.20;99.90;;;;;;5120763;28;19933;-81
2022/03/02 10:38:55;;;;;;;;;;;27.50;99.90;;;;;;5122014;27;19947;-81
2022/03/02 10:41:21;;;;;;;;;;;28.20;99.90;;;;;;5113816;27;20370;-81
2022/03/02 10:43:57;;;;;;;;;;;29.10;99.90;;;;;;5103275;28;19913;-81
2022/03/02 10:46:23;;;;;;;;;;;29.20;99.90;;;;;;5121121;28;19907;-81
2022/03/02 10:49:09;;;;;;;;;;;28.70;99.90;;;;;;5126269;27;19912;-82
2022/03/02 10:51:35;;;;;;;;;;;28.70;99.90;;;;;;5099901;27;19908;-81
2022/03/02 10:54:04;;;;;;;;;;;29.10;99.90;;;;;;5116394;27;19919;-81
2022/03/02 10:56:35;;;;;;;;;;;29.30;99.90;;;;;;5141641;27;19911;-81
2022/03/02 10:59:02;;;;;;;;;;;29.50;99.90;;;;;;5103064;28;19908;-81
2022/03/02 11:01:27;;;;;;;;;;;28.70;99.90;;;;;;5137121;27;19928;-81
2022/03/02 11:03:54;;;;;;;;;;;28.50;99.90;;;;;;5120802;27;20411;-81
2022/03/02 11:06:20;;;;;;;;;;;28.20;99.90;;;;;;5116898;27;20272;-81
2022/03/02 11:08:46;;;;;;;;;;;27.80;99.90;;;;;;5137453;27;19911;-81
2022/03/02 11:11:11;;;;;;;;;;;27.00;99.90;;;;;;5122257;27;19918;-81
2022/03/02 11:13:37;;;;;;;;;;;27.10;99.90;;;;;;5110366;27;20009;-80
2022/03/02 11:16:04;;;;;;;;;;;27.00;99.90;;;;;;5109395;27;19990;-81
2022/03/02 11:18:36;;;;;;;;;;;26.10;99.90;;;;;;5129138;27;19983;-82
2022/03/02 11:21:06;;;;;;;;;;;25.40;99.90;;;;;;5122038;27;19922;-81
2022/03/02 11:23:48;;;;;;;;;;;25.30;99.90;;;;;;5123718;27;19922;-82
2022/03/02 11:26:16;;;;;;;;;;;25.40;99.90;;;;;;5128448;27;19912;-82
2022/03/02 11:28:46;;;;;;;;;;;25.00;99.90;;;;;;5110701;27;19912;-82
2022/03/02 11:31:11;;;;;;;;;;;25.30;99.90;;;;;;5128753;27;19915;-81
2022/03/02 11:33:37;;;;;;;;;;;25.20;99.90;;;;;;5123669;27;19956;-81
2022/03/02 11:36:13;;;;;;;;;;;25.10;99.90;;;;;;5106415;27;19918;-80
2022/03/02 11:38:40;;;;;;;;;;;25.30;99.90;;;;;;5106731;27;19912;-81
2022/03/02 11:41:06;;;;;;;;;;;25.00;99.90;;;;;;5123291;27;20291;-82
2022/03/02 11:43:33;;;;;;;;;;;24.70;99.90;;;;;;5120792;27;19912;-81
2022/03/02 11:46:03;;;;;;;;;;;24.30;99.90;;;;;;5123538;27;19961;-81
2022/03/02 11:48:30;;;;;;;;;;;24.50;99.90;;;;;;5121747;27;20219;-81
2022/03/02 11:50:59;;;;;;;;;;;24.50;99.90;;;;;;5107587;27;19915;-81
2022/03/02 11:53:28;;;;;;;;;;;24.70;99.90;;;;;;5124452;27;19952;-81
2022/03/02 11:55:54;;;;;;;;;;;24.80;99.90;;;;;;5122466;27;20398;-81
2022/03/02 11:58:19;;;;;;;;;;;24.10;99.90;;;;;;5126558;27;19912;-81
2022/03/02 12:00:45;;;;;;;;;;;22.70;99.90;;;;;;5130217;27;19918;-81
2022/03/02 12:03:10;;;;;;;;;;;23.20;99.90;;;;;;5109706;27;19911;-79
2022/03/02 12:05:36;;;;;;;;;;;23.60;99.90;;;;;;5119054;27;19959;-82
2022/03/02 12:08:06;;;;;;;;;;;23.10;99.90;;;;;;5117590;27;19912;-81
2022/03/02 12:10:35;;;;;;;;;;;22.90;99.90;;;;;;5108264;28;19911;-80
2022/03/02 12:13:01;;;;;;;;;;;22.60;99.90;;;;;;5128724;27;19962;-81
2022/03/02 12:15:40;;;;;;;;;;;22.00;99.90;;;;;;5102223;28;19912;-80
2022/03/02 12:18:07;;;;;;;;;;;21.60;99.90;;;;;;5117707;27;19911;-80
2022/03/02 12:20:34;;;;;;;;;;;21.90;99.90;;;;;;5113971;28;19939;-80
2022/03/02 12:23:00;;;;;;;;;;;21.20;99.90;;;;;;5119484;27;19918;-81
2022/03/02 12:25:27;;;;;;;;;;;21.90;99.90;;;;;;5114653;27;19919;-80
2022/03/02 12:28:00;;;;;;;;;;;21.60;99.90;;;;;;5127920;27;19934;-80
2022/03/02 12:30:30;;;;;;;;;;;21.80;99.90;;;;;;5127117;27;20532;-80
2022/03/02 12:32:55;;;;;;;;;;;22.00;99.90;;;;;;5128959;27;19924;-79
2022/03/02 12:35:24;;;;;;;;;;;21.90;99.90;;;;;;5108690;27;19949;-81
2022/03/02 12:37:51;;;;;;;;;;;22.10;99.90;;;;;;5104535;28;19951;-80
2022/03/02 12:40:17;;;;;;;;;;;21.50;99.90;;;;;;5123706;27;19933;-79
2022/03/02 12:42:43;;;;;;;;;;;21.10;99.90;;;;;;5124009;27;19998;-79
2022/03/02 12:45:10;;;;;;;;;;;21.10;99.90;;;;;;5128972;27;19918;-79
2022/03/02 12:47:36;;;;;;;;;;;21.40;99.90;;;;;;5124868;27;19922;-79
2022/03/02 12:50:04;;;;;;;;;;;21.90;99.90;;;;;;5124082;27;19912;-80
2022/03/02 12:52:30;;;;;;;;;;;22.10;99.90;;;;;;5105389;28;19923;-79
2022/03/02 12:54:56;;;;;;;;;;;22.00;99.90;;;;;;5124071;27;20303;-80
2022/03/02 12:57:23;;;;;;;;;;;22.10;99.90;;;;;;5124278;27;19915;-80
2022/03/02 12:59:50;;;;;;;;;;;22.00;99.90;;;;;;5129158;27;19937;-79
2022/03/02 13:02:19;;;;;;;;;;;21.60;99.90;;;;;;5120343;27;20431;-79
2022/03/02 13:05:00;;;;;;;;;;;21.80;99.90;;;;;;5137782;27;19943;-78
2022/03/02 13:07:31;;;;;;;;;;;21.70;99.90;;;;;;5129482;27;19958;-80
2022/03/02 13:09:59;;;;;;;;;;;21.80;99.90;;;;;;5135773;27;19907;-79
2022/03/02 13:12:24;;;;;;;;;;;21.60;99.90;;;;;;5109439;27;19919;-81
2022/03/02 13:14:50;;;;;;;;;;;21.50;99.90;;;;;;5120772;27;20028;-78
2022/03/02 13:17:16;;;;;;;;;;;21.40;99.90;;;;;;5118639;27;19911;-78
2022/03/02 13:19:46;;;;;;;;;;;21.10;99.90;;;;;;5120638;27;20052;-80
2022/03/02 13:22:31;;;;;;;;;;;20.70;99.90;;;;;;5104831;27;19918;-78
2022/03/02 13:25:02;;;;;;;;;;;20.30;99.90;;;;;;5138533;27;19978;-80
2022/03/02 13:27:28;;;;;;;;;;;20.80;99.90;;;;;;5138395;27;19916;-79
2022/03/02 13:30:00;;;;;;;;;;;21.20;99.90;;;;;;5121561;27;19915;-80
2022/03/02 13:32:44;;;;;;;;;;;21.00;99.90;;;;;;5121722;27;19919;-80
2022/03/02 13:35:11;;;;;;;;;;;21.10;99.90;;;;;;5138730;27;20298;-80
2022/03/02 13:37:56;;;;;;;;;;;21.00;99.90;;;;;;5112358;28;19912;-79
2022/03/02 13:40:34;;;;;;;;;;;20.20;99.90;;;;;;5101778;28;20040;-79
2022/03/02 13:43:05;;;;;;;;;;;20.00;99.90;;;;;;5138525;27;19911;-79
2022/03/02 13:45:34;;;;;;;;;;;20.00;99.90;;;;;;5137845;27;19998;-79
2022/03/02 13:48:21;;;;;;;;;;;20.50;99.90;;;;;;5121748;27;20046;-79
2022/03/02 13:51:05;;;;;;;;;;;20.30;99.90;;;;;;5121450;27;19908;-78
2022/03/02 13:53:58;;;;;;;;;;;19.90;99.90;;;;;;5125598;27;19920;-79
2022/03/02 13:56:29;;;;;;;;;;;20.00;99.90;;;;;;5115699;27;20000;-79
2022/03/02 13:58:58;;;;;;;;;;;20.00;99.90;;;;;;5138909;27;19908;-79
2022/03/02 14:01:26;;;;;;;;;;;19.70;99.90;;;;;;5105260;28;19919;-79
2022/03/02 14:04:02;;;;;;;;;;;19.60;99.90;;;;;;5117759;27;19912;-79
2022/03/02 14:06:28;;;;;;;;;;;19.30;99.90;;;;;;5121307;27;20689;-79
2022/03/02 14:08:54;;;;;;;;;;;19.40;99.90;;;;;;5116201;27;20002;-79
2022/03/02 14:11:46;;;;;;;;;;;19.30;99.90;;;;;;5131395;27;19912;-78
2022/03/02 14:14:13;;;;;;;;;;;19.20;99.90;;;;;;5093076;28;19918;-79
2022/03/02 14:16:50;;;;;;;;;;;19.60;99.90;;;;;;5121840;27;19994;-80
2022/03/02 14:19:16;;;;;;;;;;;19.80;99.90;;;;;;5119822;27;20268;-80
2022/03/02 14:21:52;;;;;;;;;;;19.70;99.90;;;;;;5112300;28;19961;-80
2022/03/02 14:24:18;;;;;;;;;;;19.60;99.90;;;;;;5125552;27;19915;-80